Terminal Aerodrome Forecast
Issued by NWS

Home | Current Version | Previous Version | Graphics & Text | Print | Product List | Glossary Off
Versions: 1 2 3 4 5 6 7 8 9 10 11 12 13 14 15 16 17 18 19

000
FTUS43 KDDC 200520
TAFGCK
TAF
KGCK 200520Z 2006/2106 18012KT P6SM BKN200
     FM201000 26010KT P6SM SCT200
     FM201600 34022G30KT P6SM FEW250
     FM210000 36010KT P6SM SKC=

USA.gov is the U.S. government's official web portal to all federal, state and local government web resources and services.